Time;durP1;ratioP1;P1;durP2;ratioP2;P2;SDS_P1;SDS_P2;PMS_P1;PMS_P2;Temp;Humidity;BMP_temperature;BMP_pressure;BME280_temperature;BME280_humidity;BME280_pressure;Samples;Min_cycle;Max_cycle;Signal;HPM_P1;HPM_P2
2022/08/03 00:03:26;;;;;;;2.80;1.62;;;17.20;99.90;;;;;;7347117;32;20131;-60
2022/08/03 00:07:28;;;;;;;8.75;2.10;;;17.20;99.90;;;;;;7339689;32;20103;-61
2022/08/03 00:11:30;;;;;;;4.10;2.03;;;17.20;99.90;;;;;;7344553;32;20649;-63
2022/08/03 00:15:32;;;;;;;5.43;2.10;;;17.20;99.90;;;;;;7344352;32;20237;-61
2022/08/03 00:19:33;;;;;;;4.65;1.70;;;17.10;99.90;;;;;;7343586;32;20279;-62
2022/08/03 00:23:36;;;;;;;4.78;1.98;;;17.00;99.90;;;;;;7341379;32;20672;-61
2022/08/03 00:27:53;;;;;;;4.03;1.73;;;17.00;99.90;;;;;;7334280;32;20222;-61
2022/08/03 00:31:56;;;;;;;3.83;2.03;;;17.00;99.90;;;;;;7343183;32;20239;-61
2022/08/03 00:36:00;;;;;;;7.32;2.08;;;17.00;99.90;;;;;;7339517;32;21866;-62
2022/08/03 00:40:03;;;;;;;6.30;1.87;;;16.90;99.90;;;;;;7340019;32;20203;-61
2022/08/03 00:44:06;;;;;;;4.30;2.00;;;16.90;99.90;;;;;;7346233;32;20131;-62
2022/08/03 00:48:09;;;;;;;7.37;2.30;;;16.90;99.90;;;;;;7334110;32;20175;-60
2022/08/03 00:52:31;;;;;;;5.80;2.10;;;16.80;99.90;;;;;;7339620;32;20238;-63
2022/08/03 00:56:33;;;;;;;6.82;2.40;;;16.80;99.90;;;;;;7338085;32;20279;-61
2022/08/03 01:00:37;;;;;;;4.20;2.25;;;16.70;99.90;;;;;;7342362;32;20172;-63
2022/08/03 01:04:39;;;;;;;4.37;2.00;;;16.70;99.90;;;;;;7344413;32;20139;-63
2022/08/03 01:08:59;;;;;;;6.12;2.20;;;16.70;99.90;;;;;;7331146;32;20103;-63
2022/08/03 01:13:21;;;;;;;4.97;2.83;;;16.60;99.90;;;;;;7332516;32;20123;-62
2022/08/03 01:17:53;;;;;;;6.80;2.30;;;16.60;99.90;;;;;;7334171;32;20229;-60
2022/08/03 01:22:15;;;;;;;3.90;2.58;;;16.60;99.90;;;;;;7336867;32;20255;-62
2022/08/03 01:26:45;;;;;;;8.63;2.37;;;16.50;99.90;;;;;;7337221;32;20103;-61
2022/08/03 01:30:48;;;;;;;5.72;2.40;;;16.50;99.90;;;;;;7334129;32;20156;-61
2022/08/03 01:34:57;;;;;;;5.55;2.40;;;16.50;99.90;;;;;;7339717;32;20721;-61
2022/08/03 01:39:02;;;;;;;8.40;2.80;;;16.40;99.90;;;;;;7335141;32;20232;-61
2022/08/03 01:43:07;;;;;;;6.75;2.90;;;16.40;99.90;;;;;;7335778;32;20335;-61
2022/08/03 01:47:11;;;;;;;4.05;2.75;;;16.40;99.90;;;;;;7336574;32;20286;-60
2022/08/03 01:51:16;;;;;;;5.57;2.70;;;16.40;99.90;;;;;;7338398;32;20099;-61
2022/08/03 01:55:19;;;;;;;4.90;2.85;;;16.30;99.90;;;;;;7341280;32;20100;-60
2022/08/03 01:59:22;;;;;;;5.03;2.90;;;16.30;99.90;;;;;;7309657;32;20226;-62
2022/08/03 02:03:25;;;;;;;4.95;2.90;;;16.30;99.90;;;;;;7342472;32;20285;-62
2022/08/03 02:07:29;;;;;;;7.03;3.00;;;16.30;99.90;;;;;;7341477;32;20123;-61
2022/08/03 02:11:33;;;;;;;5.80;2.80;;;16.20;99.90;;;;;;7335448;32;20791;-63
2022/08/03 02:15:37;;;;;;;6.90;2.95;;;16.20;99.90;;;;;;7326509;32;20127;-61
2022/08/03 02:19:41;;;;;;;9.80;3.03;;;16.20;99.90;;;;;;7334094;32;20240;-61
2022/08/03 02:23:43;;;;;;;7.32;3.00;;;16.20;99.90;;;;;;7327977;32;20108;-63
2022/08/03 02:27:53;;;;;;;9.95;3.53;;;16.20;99.90;;;;;;7347512;32;20563;-63
2022/08/03 02:31:58;;;;;;;7.18;3.22;;;16.20;99.90;;;;;;7323817;32;20478;-62
2022/08/03 02:36:03;;;;;;;6.37;3.60;;;16.10;99.90;;;;;;7341619;32;20189;-65
2022/08/03 02:40:21;;;;;;;5.65;3.25;;;16.10;99.90;;;;;;7326494;32;20202;-61
2022/08/03 02:44:46;;;;;;;6.82;3.90;;;16.10;99.90;;;;;;7340407;32;20127;-60
2022/08/03 02:48:50;;;;;;;9.98;3.37;;;16.00;99.90;;;;;;7341629;32;20256;-63
2022/08/03 02:52:53;;;;;;;8.15;3.05;;;16.00;99.90;;;;;;7335552;32;20528;-61
2022/08/03 02:56:57;;;;;;;6.87;3.37;;;16.00;99.90;;;;;;7339398;32;20250;-60
2022/08/03 03:01:10;;;;;;;5.68;3.12;;;15.90;99.90;;;;;;7332689;32;20745;-61
2022/08/03 03:05:13;;;;;;;6.87;3.70;;;15.90;99.90;;;;;;7335834;32;20440;-61
2022/08/03 03:09:35;;;;;;;5.90;3.40;;;15.90;99.90;;;;;;7335471;32;20296;-61
2022/08/03 03:13:43;;;;;;;12.73;4.18;;;15.80;99.90;;;;;;7333943;32;20122;-62
2022/08/03 03:17:48;;;;;;;10.75;4.05;;;15.80;99.90;;;;;;7330342;32;20191;-60
2022/08/03 03:22:01;;;;;;;5.43;3.15;;;15.80;99.90;;;;;;7338993;32;20724;-62
2022/08/03 03:26:04;;;;;;;8.02;3.47;;;15.80;99.90;;;;;;7334115;32;20312;-61
2022/08/03 03:30:06;;;;;;;7.30;3.42;;;15.70;99.90;;;;;;7334138;32;20194;-61
2022/08/03 03:34:08;;;;;;;7.75;3.20;;;15.70;99.90;;;;;;7336923;32;20133;-60
2022/08/03 03:38:11;;;;;;;9.90;4.22;;;15.80;99.90;;;;;;7333482;32;20203;-61
2022/08/03 03:42:13;;;;;;;7.60;3.70;;;15.70;99.90;;;;;;7335872;32;20170;-61
2022/08/03 03:46:15;;;;;;;9.07;3.58;;;15.70;99.90;;;;;;7336913;32;20258;-61
2022/08/03 03:50:18;;;;;;;4.90;3.40;;;15.60;99.90;;;;;;7336975;32;20103;-61
2022/08/03 03:54:20;;;;;;;7.07;3.28;;;15.60;99.90;;;;;;7341083;32;20174;-65
2022/08/03 03:58:22;;;;;;;7.62;3.40;;;15.60;99.90;;;;;;7329704;32;20777;-61
2022/08/03 04:02:25;;;;;;;7.20;3.35;;;15.60;99.90;;;;;;7336284;32;20222;-60
2022/08/03 04:11:00;;;;;;;6.12;3.35;;;15.50;99.90;;;;;;7331199;32;20107;-62
2022/08/03 04:15:03;;;;;;;5.93;2.97;;;15.60;99.90;;;;;;7339377;32;20152;-61
2022/08/03 04:19:09;;;;;;;7.12;3.30;;;15.60;99.90;;;;;;7338878;32;20202;-61
2022/08/03 04:23:12;;;;;;;4.45;2.45;;;15.60;99.90;;;;;;7340231;32;20310;-60
2022/08/03 04:27:21;;;;;;;4.35;3.30;;;15.70;99.90;;;;;;7337330;32;20099;-61
2022/08/03 04:31:24;;;;;;;6.18;3.70;;;15.70;99.90;;;;;;7334577;32;20216;-63
2022/08/03 04:35:30;;;;;;;6.75;3.28;;;15.70;99.90;;;;;;7340095;32;20182;-61
2022/08/03 04:39:53;;;;;;;5.32;3.55;;;15.90;99.90;;;;;;7335824;32;20278;-61
2022/08/03 04:44:00;;;;;;;4.60;3.12;;;15.80;99.90;;;;;;7338761;32;20137;-61
2022/08/03 04:48:03;;;;;;;4.45;3.08;;;15.90;99.90;;;;;;7336769;32;20139;-63
2022/08/03 04:52:07;;;;;;;6.97;2.90;;;16.20;99.90;;;;;;7340424;32;20179;-64
2022/08/03 04:56:09;;;;;;;7.80;2.65;;;16.70;99.90;;;;;;7340145;32;20198;-65
2022/08/03 05:00:11;;;;;;;4.45;2.47;;;16.90;99.90;;;;;;7331470;32;20145;-65
2022/08/03 05:04:13;;;;;;;4.40;2.70;;;17.00;99.90;;;;;;7341251;32;20153;-64
2022/08/03 05:08:15;;;;;;;5.62;3.22;;;17.10;99.90;;;;;;7339278;32;20174;-64
2022/08/03 05:12:22;;;;;;;10.77;3.87;;;17.20;99.90;;;;;;7342193;32;20581;-65
2022/08/03 05:16:24;;;;;;;4.85;3.40;;;17.30;99.90;;;;;;7345277;32;20177;-64
2022/08/03 05:20:26;;;;;;;5.82;3.30;;;17.40;99.90;;;;;;7338113;32;20991;-64
2022/08/03 05:24:28;;;;;;;5.95;3.30;;;17.50;99.90;;;;;;7343122;32;20256;-65
2022/08/03 05:28:29;;;;;;;5.03;3.47;;;17.60;99.90;;;;;;7336820;32;20175;-64
2022/08/03 05:32:32;;;;;;;4.12;3.05;;;17.70;99.90;;;;;;7326871;32;20318;-59
2022/08/03 05:36:33;;;;;;;6.43;3.15;;;17.90;99.90;;;;;;7336816;32;20124;-59
2022/08/03 05:40:35;;;;;;;5.55;3.60;;;18.10;99.90;;;;;;7332843;32;20103;-58
2022/08/03 05:44:37;;;;;;;9.38;3.22;;;18.30;99.90;;;;;;7335974;32;20115;-57
2022/08/03 05:48:40;;;;;;;5.57;2.87;;;18.40;99.90;;;;;;7334224;32;20559;-58
2022/08/03 05:52:42;;;;;;;6.97;3.08;;;18.60;99.90;;;;;;7338218;32;20174;-57
2022/08/03 05:56:44;;;;;;;11.05;3.85;;;18.70;99.90;;;;;;7336946;32;20585;-63
2022/08/03 06:00:46;;;;;;;11.00;3.53;;;18.80;99.90;;;;;;7323640;32;20320;-63
2022/08/03 06:04:48;;;;;;;4.07;2.62;;;18.90;99.90;;;;;;7320268;32;20557;-63
2022/08/03 06:08:50;;;;;;;8.18;2.75;;;19.10;99.90;;;;;;7318462;32;20255;-63
2022/08/03 06:12:51;;;;;;;7.87;2.90;;;19.10;99.90;;;;;;7327290;32;20264;-63
2022/08/03 06:16:54;;;;;;;6.55;2.72;;;19.20;99.90;;;;;;7330776;32;20170;-62
2022/08/03 06:20:56;;;;;;;5.87;2.80;;;19.40;99.90;;;;;;7321469;32;20276;-63
2022/08/03 06:24:57;;;;;;;8.40;2.50;;;19.70;99.90;;;;;;7328463;32;20126;-63
2022/08/03 06:29:05;;;;;;;9.35;2.95;;;19.70;99.90;;;;;;7328932;32;20553;-62
2022/08/03 06:33:10;;;;;;;3.83;2.78;;;19.90;99.90;;;;;;7324390;32;20096;-63
2022/08/03 06:37:12;;;;;;;7.15;2.87;;;20.10;99.90;;;;;;7331040;32;20126;-64
2022/08/03 06:41:14;;;;;;;6.28;2.75;;;20.30;99.90;;;;;;7330916;32;20186;-64
2022/08/03 06:45:15;;;;;;;6.05;2.83;;;20.50;99.90;;;;;;7338361;32;20249;-64
2022/08/03 06:49:17;;;;;;;4.72;2.83;;;20.70;99.90;;;;;;7328547;32;20583;-64
2022/08/03 06:53:20;;;;;;;8.07;3.12;;;20.80;99.90;;;;;;7330829;32;20227;-64
2022/08/03 06:57:22;;;;;;;5.78;2.90;;;21.00;99.90;;;;;;7328890;32;20092;-63
2022/08/03 07:01:24;;;;;;;5.10;2.70;;;21.00;99.90;;;;;;7333826;32;20118;-62
2022/08/03 07:05:25;;;;;;;9.10;2.95;;;21.10;99.90;;;;;;7336563;32;20238;-64
2022/08/03 07:09:27;;;;;;;8.30;3.30;;;21.30;99.90;;;;;;7329858;32;20175;-63
2022/08/03 07:13:29;;;;;;;8.98;2.92;;;21.50;99.90;;;;;;7329932;32;20183;-65
2022/08/03 07:17:33;;;;;;;5.75;2.58;;;21.60;99.90;;;;;;7325718;32;20141;-63
2022/08/03 07:21:35;;;;;;;10.52;2.85;;;21.70;99.90;;;;;;7327187;32;20586;-64
2022/08/03 07:25:36;;;;;;;5.12;2.50;;;21.90;99.90;;;;;;7323392;32;20426;-64
2022/08/03 07:29:38;;;;;;;5.68;2.55;;;22.30;99.90;;;;;;7327732;32;20130;-63
2022/08/03 07:33:40;;;;;;;4.55;2.45;;;22.40;99.90;;;;;;7327085;32;20591;-63
2022/08/03 07:37:41;;;;;;;5.75;2.80;;;22.60;99.90;;;;;;7326372;32;20629;-64
2022/08/03 07:41:55;;;;;;;8.70;2.37;;;22.80;99.90;;;;;;7332126;32;20147;-63
2022/08/03 07:45:57;;;;;;;6.57;2.60;;;22.80;99.90;;;;;;7331724;32;20215;-63
2022/08/03 07:49:59;;;;;;;9.00;2.53;;;23.00;99.90;;;;;;7329435;32;20324;-63
2022/08/03 07:54:00;;;;;;;4.15;2.12;;;23.00;99.90;;;;;;7336809;32;20507;-63
2022/08/03 07:58:21;;;;;;;7.07;2.58;;;23.20;99.90;;;;;;7329191;32;20272;-64
2022/08/03 08:02:25;;;;;;;10.57;2.70;;;23.20;99.90;;;;;;7328094;32;20150;-63
2022/08/03 08:06:26;;;;;;;4.50;2.28;;;23.50;99.90;;;;;;7326836;32;20313;-64
2022/08/03 08:10:29;;;;;;;6.25;2.45;;;23.60;99.90;;;;;;7327233;32;20715;-64
2022/08/03 08:14:30;;;;;;;4.65;2.50;;;23.40;99.90;;;;;;7333515;32;20780;-64
2022/08/03 08:18:33;;;;;;;4.95;2.40;;;23.60;99.90;;;;;;7332899;32;20481;-63
2022/08/03 08:22:34;;;;;;;5.43;2.47;;;23.70;99.90;;;;;;7330847;32;20307;-64
2022/08/03 08:26:38;;;;;;;8.13;2.92;;;23.80;99.90;;;;;;7338974;32;20661;-64
2022/08/03 08:30:39;;;;;;;7.07;2.92;;;24.10;99.90;;;;;;7337489;32;20226;-63
2022/08/03 08:34:41;;;;;;;9.05;3.00;;;24.30;99.90;;;;;;7339102;32;20260;-63
2022/08/03 08:38:43;;;;;;;5.37;2.30;;;24.70;99.90;;;;;;7329845;32;20310;-63
2022/08/03 08:42:46;;;;;;;5.50;2.17;;;25.20;99.90;;;;;;7338192;32;20194;-63
2022/08/03 08:47:01;;;;;;;7.97;2.17;;;26.50;99.90;;;;;;7342932;32;20119;-64
2022/08/03 08:51:04;;;;;;;5.72;1.87;;;27.40;99.90;;;;;;7327960;32;20179;-64
2022/08/03 08:55:08;;;;;;;6.32;2.00;;;28.20;99.90;;;;;;7334404;32;20103;-64
2022/08/03 08:59:10;;;;;;;5.97;1.85;;;28.90;99.90;;;;;;7337179;32;20741;-64
2022/08/03 09:03:13;;;;;;;7.35;1.90;;;29.60;99.90;;;;;;7337186;32;20244;-65
2022/08/03 09:07:35;;;;;;;9.90;2.00;;;29.90;99.90;;;;;;7327977;32;20519;-64
2022/08/03 09:11:40;;;;;;;4.43;1.67;;;30.50;99.90;;;;;;7336799;32;20739;-64
2022/08/03 09:16:09;;;;;;;7.68;1.87;;;30.50;99.90;;;;;;7331441;32;20234;-63
2022/08/03 09:20:11;;;;;;;5.10;1.60;;;30.90;99.90;;;;;;7337953;32;20154;-64
2022/08/03 09:24:14;;;;;;;3.95;1.42;;;31.20;98.70;;;;;;7331958;32;20242;-64
2022/08/03 09:28:36;;;;;;;9.38;1.50;;;31.60;97.70;;;;;;7341334;32;20117;-64
2022/08/03 09:33:08;;;;;;;4.65;1.23;;;31.90;94.80;;;;;;7328611;32;20217;-64
2022/08/03 09:37:15;;;;;;;6.15;1.50;;;32.00;93.50;;;;;;7334096;32;20206;-64
2022/08/03 09:41:18;;;;;;;9.55;1.30;;;32.40;92.80;;;;;;7329156;32;20178;-64
2022/08/03 09:45:26;;;;;;;9.02;1.60;;;32.00;92.10;;;;;;7332114;32;20149;-63
2022/08/03 09:49:28;;;;;;;6.50;1.50;;;31.90;92.90;;;;;;7334761;32;20119;-63
2022/08/03 09:53:30;;;;;;;8.20;1.73;;;31.90;93.70;;;;;;7335332;32;20633;-64
2022/08/03 09:57:32;;;;;;;6.15;1.60;;;32.30;92.00;;;;;;7333015;32;22879;-63
2022/08/03 10:01:36;;;;;;;9.20;1.87;;;32.40;93.30;;;;;;7330085;32;20568;-64
2022/08/03 10:05:43;;;;;;;5.22;1.30;;;32.70;91.20;;;;;;7332755;32;20226;-63
2022/08/03 10:09:57;;;;;;;5.43;1.00;;;32.70;90.30;;;;;;7327602;32;20232;-63
2022/08/03 10:14:19;;;;;;;2.58;0.85;;;32.80;90.90;;;;;;7322734;32;20108;-63
2022/08/03 10:18:21;;;;;;;2.60;1.00;;;32.70;88.00;;;;;;7326662;32;20589;-63
2022/08/03 10:22:26;;;;;;;4.97;1.02;;;32.80;90.20;;;;;;7331741;32;20259;-62
2022/08/03 10:26:31;;;;;;;4.80;0.90;;;32.60;88.50;;;;;;7334858;32;20262;-62
2022/08/03 10:30:35;;;;;;;7.30;1.17;;;32.50;87.00;;;;;;7324549;32;20205;-63
2022/08/03 10:34:40;;;;;;;4.90;1.23;;;32.20;88.20;;;;;;7330456;32;20116;-64
2022/08/03 10:38:53;;;;;;;4.85;1.02;;;32.40;90.00;;;;;;7324850;32;20099;-64
2022/08/03 10:43:01;;;;;;;4.37;1.00;;;32.60;88.80;;;;;;7327198;32;20290;-65
2022/08/03 10:47:03;;;;;;;9.77;1.23;;;32.90;84.60;;;;;;7325199;32;20188;-64
2022/08/03 10:51:06;;;;;;;3.97;0.80;;;32.90;87.00;;;;;;7331079;32;20536;-64
2022/08/03 10:59:56;;;;;;;4.55;1.00;;;33.30;84.60;;;;;;7330975;32;20120;-64
2022/08/03 11:03:57;;;;;;;3.85;1.10;;;32.90;81.80;;;;;;7329218;32;20329;-64
2022/08/03 11:08:23;;;;;;;2.70;1.10;;;32.60;86.40;;;;;;7327965;32;20227;-64
2022/08/03 11:12:27;;;;;;;4.55;0.90;;;32.40;89.40;;;;;;7332731;32;20182;-64
2022/08/03 11:16:37;;;;;;;5.75;1.00;;;32.40;86.40;;;;;;7335062;32;20137;-64
2022/08/03 11:20:49;;;;;;;2.22;0.90;;;32.40;85.70;;;;;;7340277;32;20504;-64
2022/08/03 11:24:55;;;;;;;1.85;0.75;;;32.10;85.90;;;;;;7342632;32;20202;-65
2022/08/03 11:29:29;;;;;;;3.47;1.07;;;32.00;83.20;;;;;;7333861;32;20110;-64
2022/08/03 11:33:31;;;;;;;6.72;1.00;;;32.20;86.70;;;;;;7342948;32;20255;-64
2022/08/03 11:37:33;;;;;;;3.97;0.95;;;32.20;81.60;;;;;;7333059;32;20316;-64
2022/08/03 11:41:34;;;;;;;1.58;0.75;;;32.20;82.80;;;;;;7345840;32;20186;-64
2022/08/03 11:46:16;;;;;;;6.97;1.10;;;32.30;87.80;;;;;;7336165;32;20096;-65
2022/08/03 11:50:36;;;;;;;5.62;0.98;;;32.20;83.20;;;;;;7340019;32;20351;-65
2022/08/03 11:54:39;;;;;;;2.87;0.90;;;32.20;85.40;;;;;;7334526;32;20281;-65
2022/08/03 11:58:49;;;;;;;5.95;1.10;;;32.20;82.00;;;;;;7337553;32;20407;-65
2022/08/03 12:03:13;;;;;;;2.45;1.00;;;32.20;85.70;;;;;;7340569;32;20100;-65
2022/08/03 12:07:16;;;;;;;9.55;1.10;;;32.40;81.90;;;;;;7333269;32;20499;-65
2022/08/03 12:11:38;;;;;;;2.97;0.90;;;32.60;80.20;;;;;;7334038;32;20189;-65
2022/08/03 12:16:00;;;;;;;5.10;0.80;;;32.50;81.90;;;;;;7335629;32;20278;-65
2022/08/03 12:20:04;;;;;;;4.03;0.90;;;32.50;82.50;;;;;;7330472;32;20121;-65
2022/08/03 12:24:06;;;;;;;4.47;0.70;;;32.60;80.80;;;;;;7330387;32;20724;-66
2022/08/03 12:28:27;;;;;;;1.98;0.73;;;32.50;80.30;;;;;;7330662;32;20263;-66
2022/08/03 12:32:41;;;;;;;5.78;1.05;;;32.30;79.90;;;;;;7331232;32;20228;-66
2022/08/03 12:36:58;;;;;;;3.08;0.85;;;32.40;79.00;;;;;;7336959;32;20498;-66
2022/08/03 12:41:03;;;;;;;2.10;0.70;;;32.40;77.40;;;;;;7336921;32;20735;-66
2022/08/03 12:45:25;;;;;;;5.50;1.10;;;32.30;77.10;;;;;;7328843;32;20195;-65
2022/08/03 12:49:28;;;;;;;3.67;0.70;;;32.20;77.80;;;;;;7336103;32;20779;-65
2022/08/03 12:53:31;;;;;;;6.32;0.90;;;32.20;78.40;;;;;;7326280;32;20194;-66
2022/08/03 12:57:40;;;;;;;3.60;1.00;;;32.30;78.60;;;;;;7330547;32;20221;-65
2022/08/03 13:01:42;;;;;;;3.62;1.10;;;32.30;78.90;;;;;;7332975;32;20126;-66
2022/08/03 13:05:56;;;;;;;4.18;1.00;;;32.40;81.30;;;;;;7331668;32;20099;-66
2022/08/03 13:09:58;;;;;;;7.75;1.10;;;32.60;77.60;;;;;;7329494;32;20485;-65
2022/08/03 13:13:59;;;;;;;6.40;1.10;;;32.70;80.50;;;;;;7334526;32;20110;-67
2022/08/03 13:18:01;;;;;;;6.80;1.15;;;32.70;76.50;;;;;;7330262;32;20244;-65
2022/08/03 13:22:11;;;;;;;3.25;0.88;;;33.00;74.20;;;;;;7331023;32;20174;-67
2022/08/03 13:26:12;;;;;;;5.32;1.10;;;32.90;73.80;;;;;;7331866;32;20127;-66
2022/08/03 13:30:15;;;;;;;3.08;0.90;;;32.80;76.10;;;;;;7330936;32;20241;-67
2022/08/03 13:34:31;;;;;;;5.10;0.93;;;32.50;78.50;;;;;;7331681;32;20754;-68
2022/08/03 13:38:32;;;;;;;3.12;1.00;;;32.40;77.40;;;;;;7326455;32;20214;-66
2022/08/03 13:42:35;;;;;;;2.45;0.93;;;32.60;76.30;;;;;;7336900;32;20243;-65
2022/08/03 13:46:37;;;;;;;4.25;1.20;;;32.80;73.60;;;;;;7341746;32;20346;-66
2022/08/03 13:50:39;;;;;;;5.43;1.10;;;32.90;71.40;;;;;;7334535;32;20566;-66
2022/08/03 13:54:43;;;;;;;6.68;1.05;;;32.90;69.60;;;;;;7329022;32;20178;-65
2022/08/03 13:58:47;;;;;;;2.80;0.90;;;33.20;71.30;;;;;;7342157;32;20095;-66
2022/08/03 14:02:49;;;;;;;4.80;1.10;;;33.70;68.20;;;;;;7342183;32;20218;-66
2022/08/03 14:06:51;;;;;;;3.35;0.70;;;34.00;68.90;;;;;;7329264;32;20233;-66
2022/08/03 14:10:53;;;;;;;4.53;0.85;;;34.10;64.70;;;;;;7337232;32;20597;-66
2022/08/03 14:14:54;;;;;;;3.05;0.80;;;33.80;67.80;;;;;;7345816;32;20549;-66
2022/08/03 14:19:02;;;;;;;1.55;0.65;;;33.50;67.10;;;;;;7339186;32;20096;-66
2022/08/03 14:23:06;;;;;;;4.03;0.70;;;33.10;68.70;;;;;;7339101;32;20798;-66
2022/08/03 14:27:08;;;;;;;4.22;0.93;;;33.20;70.80;;;;;;7341994;32;20116;-67
2022/08/03 14:31:10;;;;;;;1.75;0.85;;;33.40;69.00;;;;;;7344000;32;20710;-65
2022/08/03 14:35:31;;;;;;;4.70;1.00;;;33.40;70.00;;;;;;7333706;32;20113;-67
2022/08/03 14:39:33;;;;;;;4.93;0.80;;;33.50;65.90;;;;;;7342632;32;20172;-66
2022/08/03 14:43:55;;;;;;;3.12;0.70;;;33.60;66.70;;;;;;7331343;32;20416;-66
2022/08/03 14:48:03;;;;;;;6.12;0.70;;;33.70;70.70;;;;;;7340057;32;20444;-66
2022/08/03 14:52:25;;;;;;;2.97;0.57;;;33.70;68.00;;;;;;7341685;32;20719;-66
2022/08/03 14:56:27;;;;;;;2.33;0.47;;;33.90;64.90;;;;;;7337092;32;20119;-66
2022/08/03 15:00:28;;;;;;;2.87;1.05;;;33.60;65.80;;;;;;7341846;32;20261;-65
2022/08/03 15:04:30;;;;;;;2.72;0.80;;;33.20;65.80;;;;;;7340703;32;20116;-66
2022/08/03 15:08:32;;;;;;;4.28;0.70;;;33.00;69.80;;;;;;7338649;32;20722;-66
2022/08/03 15:12:33;;;;;;;4.82;0.65;;;33.10;65.70;;;;;;7336595;32;20433;-65
2022/08/03 15:16:36;;;;;;;2.33;0.50;;;33.00;63.20;;;;;;7330781;32;20175;-66
2022/08/03 15:20:38;;;;;;;7.55;0.85;;;33.10;66.90;;;;;;7340768;32;20707;-66
2022/08/03 15:24:46;;;;;;;3.17;0.60;;;33.00;65.50;;;;;;7331454;32;20103;-66
2022/08/03 15:28:48;;;;;;;4.15;0.55;;;32.90;64.70;;;;;;7337315;32;20235;-66
2022/08/03 15:32:50;;;;;;;3.95;0.60;;;32.80;63.60;;;;;;7334926;32;20103;-66
2022/08/03 15:36:52;;;;;;;3.12;0.50;;;32.60;61.80;;;;;;7334251;32;20103;-64
2022/08/03 15:40:54;;;;;;;2.90;0.50;;;32.50;63.10;;;;;;7334696;32;20125;-66
2022/08/03 15:44:55;;;;;;;3.20;0.55;;;32.20;62.00;;;;;;7340418;32;20511;-63
2022/08/03 15:48:57;;;;;;;3.12;0.60;;;32.10;61.60;;;;;;7337611;32;20238;-63
2022/08/03 15:52:59;;;;;;;6.25;0.52;;;32.10;63.40;;;;;;7337564;32;20244;-64
2022/08/03 15:57:00;;;;;;;4.60;0.60;;;31.90;63.40;;;;;;7333019;32;20119;-63
2022/08/03 16:01:03;;;;;;;6.55;0.62;;;31.80;62.50;;;;;;7331968;32;20104;-64
2022/08/03 16:05:06;;;;;;;1.58;0.52;;;31.60;62.80;;;;;;7339876;32;20130;-63
2022/08/03 16:09:07;;;;;;;1.65;0.50;;;31.40;63.70;;;;;;7342319;32;20172;-63
2022/08/03 16:13:29;;;;;;;2.78;0.40;;;31.50;62.90;;;;;;7344570;32;20677;-64
2022/08/03 16:17:51;;;;;;;6.25;0.50;;;31.30;67.00;;;;;;7327743;32;20139;-65
2022/08/03 16:21:53;;;;;;;2.58;0.40;;;31.40;64.00;;;;;;7340385;32;20186;-67
2022/08/03 16:25:55;;;;;;;1.80;0.50;;;31.20;64.90;;;;;;7335019;32;20271;-66
2022/08/03 16:29:57;;;;;;;1.58;0.62;;;31.10;66.10;;;;;;7335499;32;20167;-65
2022/08/03 16:33:59;;;;;;;4.12;0.90;;;31.10;65.40;;;;;;7336062;32;20212;-58
2022/08/03 16:38:03;;;;;;;2.65;0.57;;;31.00;67.40;;;;;;7338316;32;20318;-59
2022/08/03 16:42:10;;;;;;;2.97;0.73;;;30.90;66.80;;;;;;7343160;32;20403;-59
2022/08/03 16:46:12;;;;;;;5.43;0.90;;;30.70;68.70;;;;;;7340908;32;20118;-59
2022/08/03 16:50:14;;;;;;;6.30;1.00;;;30.60;68.30;;;;;;7339391;32;20306;-58
2022/08/03 16:54:40;;;;;;;3.42;1.00;;;30.60;68.90;;;;;;7384876;31;20749;-58
2022/08/03 16:58:42;;;;;;;5.47;1.00;;;30.60;69.20;;;;;;7352327;32;20127;-59
2022/08/03 17:02:49;;;;;;;3.47;0.85;;;30.40;70.30;;;;;;7359544;32;20221;-65
2022/08/03 17:06:52;;;;;;;7.12;1.20;;;30.30;71.20;;;;;;7359011;32;20164;-67
2022/08/03 17:10:54;;;;;;;6.93;0.80;;;30.30;71.20;;;;;;7361747;32;20129;-67
2022/08/03 17:14:56;;;;;;;5.07;0.80;;;30.60;69.10;;;;;;7357119;32;20310;-66
2022/08/03 17:19:02;;;;;;;3.40;0.68;;;30.40;70.80;;;;;;7360224;32;20186;-65
2022/08/03 17:23:14;;;;;;;;;;;30.10;70.70;;;;;;7362101;32;20136;-67
2022/08/03 17:27:37;;;;;;;3.53;0.80;;;30.10;71.30;;;;;;7362479;32;20009;-64
2022/08/03 17:32:01;;;;;;;3.97;0.50;;;30.10;72.20;;;;;;7358905;32;20264;-66
2022/08/03 17:36:10;;;;;;;2.30;0.52;;;29.90;73.80;;;;;;7367041;32;20381;-64
2022/08/03 17:40:13;;;;;;;3.35;0.80;;;29.90;73.40;;;;;;7360432;32;20160;-65
2022/08/03 17:44:19;;;;;;;6.47;0.80;;;29.80;73.70;;;;;;7364157;32;20099;-64
2022/08/03 17:48:41;;;;;;;3.33;0.73;;;29.80;73.80;;;;;;7361783;32;20099;-65
2022/08/03 17:52:47;;;;;;;3.15;0.60;;;29.70;75.20;;;;;;7357711;32;20477;-64
2022/08/03 17:57:24;;;;;;;4.12;0.90;;;29.60;74.80;;;;;;7364048;32;20204;-64
2022/08/03 18:06:37;;;;;;;4.53;1.98;;;29.30;78.10;;;;;;7342700;32;20157;-64
2022/08/03 18:11:06;;;;;;;3.30;1.30;;;29.00;79.30;;;;;;7339732;32;20218;-64
2022/08/03 18:15:23;;;;;;;3.58;1.15;;;28.80;81.70;;;;;;7341085;32;20143;-64
2022/08/03 18:19:28;;;;;;;7.05;2.85;;;28.60;84.50;;;;;;7341380;32;20103;-64
2022/08/03 18:23:51;;;;;;;7.32;2.25;;;28.40;90.10;;;;;;7335668;32;20310;-58
2022/08/03 18:27:53;;;;;;;4.35;1.85;;;28.10;92.10;;;;;;7342542;32;20210;-64
2022/08/03 18:31:59;;;;;;;5.62;1.42;;;27.80;94.00;;;;;;7344745;32;20171;-63
2022/08/03 18:36:11;;;;;;;7.95;1.60;;;27.60;97.50;;;;;;7343739;32;20307;-64
2022/08/03 18:40:23;;;;;;;5.62;1.10;;;27.30;99.50;;;;;;7341260;32;20149;-63
2022/08/03 18:44:29;;;;;;;3.03;0.80;;;27.10;99.90;;;;;;7346679;32;20103;-64
2022/08/03 18:49:32;;;;;;;8.38;1.00;;;26.70;99.90;;;;;;7338956;32;20260;-63
2022/08/03 18:53:44;;;;;;;3.83;1.00;;;26.40;99.90;;;;;;7338333;32;20123;-63
2022/08/03 18:58:13;;;;;;;5.57;1.10;;;26.00;99.90;;;;;;7340666;32;20167;-64
2022/08/03 19:02:37;;;;;;;10.82;1.60;;;25.70;99.90;;;;;;7341697;32;20104;-64
2022/08/03 19:06:45;;;;;;;10.82;2.05;;;25.50;99.90;;;;;;7342269;32;20262;-64
2022/08/03 19:10:56;;;;;;;3.70;1.50;;;25.30;99.90;;;;;;7340394;32;20121;-63
2022/08/03 19:15:10;;;;;;;6.90;1.25;;;25.00;99.90;;;;;;7342800;32;20156;-64
2022/08/03 19:19:17;;;;;;;6.85;1.23;;;24.80;99.90;;;;;;7340300;32;20103;-63
2022/08/03 19:23:23;;;;;;;6.72;1.00;;;24.50;99.90;;;;;;7341333;32;20571;-63
2022/08/03 19:27:27;;;;;;;4.68;1.40;;;24.40;99.90;;;;;;7344527;32;20148;-61
2022/08/03 19:31:29;;;;;;;7.60;1.37;;;24.20;99.90;;;;;;7348380;32;20234;-65
2022/08/03 19:35:50;;;;;;;5.65;1.10;;;24.00;99.90;;;;;;7344603;32;20108;-63
2022/08/03 19:39:59;;;;;;;;;;;23.80;99.90;;;;;;7341495;32;20123;-66
2022/08/03 19:44:06;;;;;;;8.20;1.10;;;23.60;99.90;;;;;;7344213;32;20095;-67
2022/08/03 19:48:12;;;;;;;8.20;1.02;;;23.40;99.90;;;;;;7333270;32;20232;-65
2022/08/03 19:52:15;;;;;;;3.33;0.90;;;23.30;99.90;;;;;;7340857;32;20223;-67
2022/08/03 19:56:24;;;;;;;5.10;1.05;;;23.20;99.90;;;;;;7344439;32;20175;-66
2022/08/03 20:00:28;;;;;;;8.95;1.30;;;23.00;99.90;;;;;;7342244;32;20210;-65
2022/08/03 20:04:39;;;;;;;5.57;1.20;;;22.80;99.90;;;;;;7346507;32;20096;-66
2022/08/03 20:08:41;;;;;;;5.72;1.08;;;22.60;99.90;;;;;;7344005;32;20665;-65
2022/08/03 20:13:03;;;;;;;4.37;1.02;;;22.50;99.90;;;;;;7346893;32;20492;-67
2022/08/03 20:17:06;;;;;;;6.87;1.27;;;22.30;99.90;;;;;;7341874;32;20746;-66
2022/08/03 20:21:12;;;;;;;3.70;1.08;;;22.30;99.90;;;;;;7344891;32;20356;-67
2022/08/03 20:25:39;;;;;;;4.15;1.27;;;22.10;99.90;;;;;;7338836;32;20709;-67
2022/08/03 20:30:00;;;;;;;4.03;1.00;;;22.00;99.90;;;;;;7337573;32;20099;-67
2022/08/03 20:34:08;;;;;;;6.18;1.00;;;22.00;99.90;;;;;;7347785;32;20126;-66
2022/08/03 20:38:10;;;;;;;3.37;1.15;;;21.90;99.90;;;;;;7340566;32;20216;-65
2022/08/03 20:42:12;;;;;;;4.28;1.00;;;21.80;99.90;;;;;;7336790;32;20132;-67
2022/08/03 20:46:21;;;;;;;4.70;1.23;;;21.60;99.90;;;;;;7339009;32;20083;-66
2022/08/03 20:50:34;;;;;;;11.38;1.08;;;21.50;99.90;;;;;;7343823;32;20107;-67
2022/08/03 20:54:37;;;;;;;5.47;1.33;;;21.50;99.90;;;;;;7340049;32;21138;-67
2022/08/03 20:58:41;;;;;;;6.25;1.25;;;21.50;99.90;;;;;;7342840;32;20207;-66
2022/08/03 21:02:50;;;;;;;5.28;1.02;;;21.20;99.90;;;;;;7344511;32;20201;-66
2022/08/03 21:06:59;;;;;;;7.65;1.15;;;21.20;99.90;;;;;;7342163;32;20857;-67
2022/08/03 21:11:10;;;;;;;11.65;1.20;;;21.10;99.90;;;;;;7339460;32;20538;-67
2022/08/03 21:15:14;;;;;;;4.62;1.10;;;21.00;99.90;;;;;;7341466;32;20112;-66
2022/08/03 21:19:39;;;;;;;6.50;1.10;;;21.00;99.90;;;;;;7339088;32;20153;-67
2022/08/03 21:23:54;;;;;;;11.25;1.55;;;20.90;99.90;;;;;;7340426;32;20095;-64
2022/08/03 21:27:56;;;;;;;4.18;1.40;;;20.80;99.90;;;;;;7338417;32;20186;-59
2022/08/03 21:31:59;;;;;;;6.32;1.30;;;20.70;99.90;;;;;;7335668;32;20127;-61
2022/08/03 21:36:01;;;;;;;3.55;1.20;;;20.70;99.90;;;;;;7331532;32;20247;-62
2022/08/03 21:40:05;;;;;;;5.72;1.20;;;20.60;99.90;;;;;;7339929;32;20099;-61
2022/08/03 21:44:07;;;;;;;2.92;0.90;;;20.60;99.90;;;;;;7347167;32;20679;-61